Time;durP1;ratioP1;P1;durP2;ratioP2;P2;SDS_P1;SDS_P2;PMS_P1;PMS_P2;Temp;Humidity;BMP_temperature;BMP_pressure;BME280_temperature;BME280_humidity;BME280_pressure;Samples;Min_cycle;Max_cycle;Signal;HPM_P1;HPM_P2
2023/10/02 00:05:40;;;;;;;3.65;2.10;;;;;;;;;;3843952;37;43659;-68
2023/10/02 00:08:49;;;;;;;3.00;1.80;;;;;;;;;;4407059;32;59773;-68
2023/10/02 00:11:35;;;;;;;3.33;2.20;;;;;;;;;;4396391;32;70328;-67
2023/10/02 00:14:23;;;;;;;3.92;2.15;;;;;;;;;;4379694;32;68182;-69
2023/10/02 00:17:14;;;;;;;;;;;;;;;;;;4392374;32;67297;-68
2023/10/02 00:20:14;;;;;;;3.20;1.70;;;;;;;;;;4396848;32;72937;-68
2023/10/02 00:23:04;;;;;;;2.72;1.90;;;;;;;;;;4406115;32;66221;-68
2023/10/02 00:26:03;;;;;;;3.58;2.20;;;;;;;;;;4395306;32;65749;-69
2023/10/02 00:28:49;;;;;;;2.72;2.00;;;;;;;;;;4385472;32;59020;-69
2023/10/02 00:31:37;;;;;;;3.83;2.05;;;;;;;;;;4410242;32;71398;-71
2023/10/02 00:34:30;;;;;;;2.87;2.05;;;;;;;;;;4388795;32;67802;-68
2023/10/02 00:37:17;;;;;;;4.15;2.50;;;;;;;;;;4407211;32;67275;-69
2023/10/02 00:40:06;;;;;;;;;;;;;;;;;;4406831;32;61439;-68
2023/10/02 00:43:33;;;;;;;4.15;1.95;;;;;;;;;;4397065;32;70433;-68
2023/10/02 00:46:23;;;;;;;3.40;2.30;;;;;;;;;;4405436;32;68577;-68
2023/10/02 00:49:25;;;;;;;2.90;1.90;;;;;;;;;;4406434;32;67638;-68
2023/10/02 00:52:12;;;;;;;4.30;2.17;;;;;;;;;;4405154;32;72077;-68
2023/10/02 00:55:04;;;;;;;;;;;;;;;;;;4394816;32;63521;-68
2023/10/02 00:57:58;;;;;;;2.87;2.00;;;;;;;;;;4384554;32;69217;-69
2023/10/02 01:00:53;;;;;;;3.83;1.85;;;;;;;;;;4405141;32;66994;-69
2023/10/02 01:04:07;;;;;;;3.58;1.90;;;;;;;;;;4394186;32;72656;-66
2023/10/02 01:09:30;;;;;;;4.18;1.98;;;;;;;;;;3844037;37;43656;-68
2023/10/02 01:12:18;;;;;;;3.35;1.90;;;;;;;;;;4380915;32;61270;-68
2023/10/02 01:15:11;;;;;;;2.35;2.03;;;;;;;;;;4391574;32;69321;-68
2023/10/02 01:21:14;;;;;;;3.83;1.85;;;;;;;;;;4386515;32;68699;-68
2023/10/02 01:24:07;;;;;;;5.35;1.98;;;;;;;;;;4390244;32;70804;-67
2023/10/02 01:26:54;;;;;;;3.25;1.87;;;;;;;;;;4390344;32;66312;-67
2023/10/02 01:29:42;;;;;;;2.50;1.85;;;;;;;;;;4390297;32;67638;-69
2023/10/02 01:32:29;;;;;;;3.60;2.00;;;;;;;;;;4368436;32;60125;-69
2023/10/02 01:35:18;;;;;;;3.83;2.03;;;;;;;;;;3843876;37;43928;-68
2023/10/02 01:38:15;;;;;;;5.62;2.30;;;;;;;;;;4406087;32;59899;-68
2023/10/02 01:41:04;;;;;;;3.12;2.42;;;;;;;;;;4395259;32;70489;-66
2023/10/02 01:43:52;;;;;;;2.78;2.20;;;;;;;;;;4405779;32;69392;-68
2023/10/02 01:46:49;;;;;;;3.92;1.75;;;;;;;;;;4406994;32;66100;-68
2023/10/02 01:49:38;;;;;;;1.80;1.65;;;;;;;;;;4395956;32;71556;-69
2023/10/02 01:52:25;;;;;;;2.80;1.90;;;;;;;;;;4405821;32;64993;-68
2023/10/02 01:55:12;;;;;;;3.22;2.00;;;;;;;;;;4395064;32;66322;-68
2023/10/02 01:58:16;;;;;;;;;;;;;;;;;;4394915;32;59250;-68
2023/10/02 02:01:00;;;;;;;2.92;1.90;;;;;;;;;;3843819;37;43969;-68
2023/10/02 02:06:29;;;;;;;3.45;1.92;;;;;;;;;;3843889;37;43800;-67
2023/10/02 02:09:23;;;;;;;4.20;2.20;;;;;;;;;;4395190;32;59123;-68
2023/10/02 02:12:14;;;;;;;2.67;2.00;;;;;;;;;;4371437;32;71618;-69
2023/10/02 02:15:06;;;;;;;4.18;2.15;;;;;;;;;;4380107;32;70101;-68
2023/10/02 02:18:05;;;;;;;2.10;1.55;;;;;;;;;;4380432;32;67240;-68
2023/10/02 02:20:58;;;;;;;5.20;1.87;;;;;;;;;;4390445;32;71596;-68
2023/10/02 02:23:45;;;;;;;2.42;1.90;;;;;;;;;;4390257;32;65641;-68
2023/10/02 02:26:36;;;;;;;3.37;2.08;;;;;;;;;;4390220;32;66050;-68
2023/10/02 02:29:26;;;;;;;3.55;2.05;;;;;;;;;;4390558;32;60487;-67
2023/10/02 02:32:12;;;;;;;3.42;2.00;;;;;;;;;;4368478;32;71438;-68
2023/10/02 02:35:03;;;;;;;2.15;1.67;;;;;;;;;;4379766;32;65521;-67
2023/10/02 02:37:52;;;;;;;3.70;1.98;;;;;;;;;;4380069;32;66562;-68
2023/10/02 02:40:40;;;;;;;3.95;1.87;;;;;;;;;;4390145;32;59849;-67
2023/10/02 02:43:27;;;;;;;2.17;1.80;;;;;;;;;;4379361;32;69318;-69
2023/10/02 02:46:17;;;;;;;5.40;2.33;;;;;;;;;;4357752;32;69464;-68
2023/10/02 02:49:04;;;;;;;3.97;1.95;;;;;;;;;;4379036;32;68443;-67
2023/10/02 02:51:55;;;;;;;2.70;1.90;;;;;;;;;;4367407;32;69920;-69
2023/10/02 02:54:44;;;;;;;3.58;1.77;;;;;;;;;;4343233;32;66119;-69
2023/10/02 02:57:32;;;;;;;2.28;1.77;;;;;;;;;;4363948;32;69939;-69
2023/10/02 03:00:31;;;;;;;1.73;1.35;;;;;;;;;;4374695;32;66529;-68
2023/10/02 03:03:33;;;;;;;3.95;1.90;;;;;;;;;;4374983;32;71695;-68
2023/10/02 03:06:23;;;;;;;5.12;1.98;;;;;;;;;;4364568;32;66994;-67
2023/10/02 03:09:10;;;;;;;1.80;1.45;;;;;;;;;;4364355;32;67705;-68
2023/10/02 03:11:56;;;;;;;2.25;1.60;;;;;;;;;;4361965;32;61509;-68
2023/10/02 03:14:43;;;;;;;2.72;2.00;;;;;;;;;;4362960;32;72475;-68
2023/10/02 03:17:29;;;;;;;2.75;1.90;;;;;;;;;;4357612;32;69585;-66
2023/10/02 03:20:22;;;;;;;3.35;2.00;;;;;;;;;;4380582;32;67443;-68
2023/10/02 03:23:11;;;;;;;2.62;1.67;;;;;;;;;;4381104;32;58873;-68
2023/10/02 03:25:58;;;;;;;5.25;1.77;;;;;;;;;;4379123;32;69269;-68
2023/10/02 03:28:45;;;;;;;2.62;1.67;;;;;;;;;;4379397;32;69524;-68
2023/10/02 03:31:35;;;;;;;;;;;;;;;;;;4357778;32;67844;-66
2023/10/02 03:34:27;;;;;;;3.58;1.70;;;;;;;;;;4369888;32;72167;-67
2023/10/02 03:37:15;;;;;;;2.55;1.67;;;;;;;;;;4368313;32;66537;-68
2023/10/02 03:40:13;;;;;;;5.00;2.00;;;;;;;;;;4357401;32;68619;-66
2023/10/02 03:43:18;;;;;;;4.62;1.83;;;;;;;;;;4358427;32;60317;-69
2023/10/02 03:46:06;;;;;;;2.55;1.52;;;;;;;;;;4378395;32;69999;-67
2023/10/02 03:49:03;;;;;;;2.80;1.73;;;;;;;;;;4379399;32;66210;-68
2023/10/02 03:51:50;;;;;;;3.55;2.28;;;;;;;;;;4358603;32;68062;-68
2023/10/02 03:54:37;;;;;;;2.55;1.60;;;;;;;;;;4380571;32;59931;-68
2023/10/02 04:00:43;;;;;;;2.00;1.53;;;;;;;;;;4378160;32;70452;-68
2023/10/02 04:03:29;;;;;;;4.18;1.62;;;;;;;;;;4359018;32;67662;-69
2023/10/02 04:06:16;;;;;;;3.85;2.05;;;;;;;;;;4377814;32;72238;-69
2023/10/02 04:09:12;;;;;;;;;;;;;;;;;;4357972;32;65927;-67
2023/10/02 04:12:02;;;;;;;5.15;1.67;;;;;;;;;;4368712;32;67694;-67
2023/10/02 04:14:48;;;;;;;2.45;1.92;;;;;;;;;;4363706;32;67924;-69
2023/10/02 04:17:35;;;;;;;3.37;1.87;;;;;;;;;;4378194;32;71494;-69
2023/10/02 04:20:28;;;;;;;1.80;1.70;;;;;;;;;;4380739;32;65850;-69
2023/10/02 04:23:21;;;;;;;2.35;1.65;;;;;;;;;;4367725;32;67110;-68
2023/10/02 04:26:19;;;;;;;3.85;1.80;;;;;;;;;;4378694;32;58965;-68
2023/10/02 04:29:26;;;;;;;2.37;1.58;;;;;;;;;;4367341;32;71511;-67
2023/10/02 04:32:19;;;;;;;3.80;1.92;;;;;;;;;;4348451;32;69882;-69
2023/10/02 04:35:44;;;;;;;3.25;2.00;;;;;;;;;;4380265;32;66547;-67
2023/10/02 04:38:47;;;;;;;1.85;1.58;;;;;;;;;;4360016;32;60337;-68
2023/10/02 04:41:28;;;;;;;3.45;2.00;;;;;;;;;;4378852;32;70065;-68
2023/10/02 04:44:18;;;;;;;2.37;1.83;;;;;;;;;;4368656;32;68885;-67
2023/10/02 04:47:06;;;;;;;3.50;2.15;;;;;;;;;;4378797;32;66817;-69
2023/10/02 04:55:45;;;;;;;3.00;2.00;;;;;;;;;;4366971;32;68049;-69
2023/10/02 04:58:31;;;;;;;1.80;1.62;;;;;;;;;;4367973;32;58905;-69
2023/10/02 05:01:24;;;;;;;3.05;1.90;;;;;;;;;;4369794;32;70071;-68
2023/10/02 05:04:18;;;;;;;5.62;2.30;;;;;;;;;;4359596;32;66870;-69
2023/10/02 05:07:06;;;;;;;5.85;2.33;;;;;;;;;;4369289;32;68402;-68
2023/10/02 05:09:53;;;;;;;3.70;2.03;;;;;;;;;;4380978;32;59758;-69
2023/10/02 05:12:44;;;;;;;;;;;;;;;;;;4365930;32;70307;-67
2023/10/02 05:15:31;;;;;;;2.40;1.60;;;;;;;;;;4364481;32;69086;-69
2023/10/02 05:18:22;;;;;;;4.47;1.75;;;;;;;;;;4359124;32;69657;-69
2023/10/02 05:21:09;;;;;;;2.90;1.60;;;;;;;;;;4382709;32;72423;-67
2023/10/02 05:24:02;;;;;;;3.53;1.80;;;;;;;;;;4380192;32;67007;-68
2023/10/02 05:26:49;;;;;;;5.60;2.22;;;;;;;;;;4370984;32;66385;-68
2023/10/02 05:29:36;;;;;;;5.50;1.83;;;;;;;;;;4379749;32;66710;-69
2023/10/02 05:32:23;;;;;;;3.25;1.60;;;;;;;;;;4357064;32;72054;-68
2023/10/02 05:35:06;;;;;;;2.65;1.70;;;;;;;;;;3843815;37;43619;-69
2023/10/02 05:37:54;;;;;;;2.12;1.60;;;;;;;;;;4394704;32;61220;-68
2023/10/02 05:40:42;;;;;;;1.87;1.60;;;;;;;;;;4384565;32;69663;-68
2023/10/02 05:43:49;;;;;;;2.45;1.58;;;;;;;;;;4405876;32;68566;-69
2023/10/02 05:46:54;;;;;;;2.12;1.50;;;;;;;;;;4383296;32;68073;-69
2023/10/02 05:49:47;;;;;;;2.33;1.62;;;;;;;;;;4406610;32;71558;-69
2023/10/02 05:52:33;;;;;;;2.12;1.40;;;;;;;;;;4384601;32;63656;-68
2023/10/02 05:55:20;;;;;;;3.17;1.83;;;;;;;;;;4407133;32;67455;-69
2023/10/02 05:58:06;;;;;;;4.30;1.80;;;;;;;;;;4383528;32;60628;-68
2023/10/02 06:00:54;;;;;;;5.10;1.73;;;;;;;;;;4405750;32;72018;-68
2023/10/02 06:03:41;;;;;;;2.33;1.52;;;;;;;;;;4394328;32;65913;-69
2023/10/02 06:06:35;;;;;;;4.35;1.60;;;;;;;;;;4405353;32;67382;-68
2023/10/02 06:09:29;;;;;;;4.10;1.90;;;;;;;;;;4384756;32;59120;-69
2023/10/02 06:12:18;;;;;;;2.42;1.65;;;;;;;;;;4370018;32;69954;-69
2023/10/02 06:15:22;;;;;;;2.85;1.55;;;;;;;;;;4379190;32;69037;-68
2023/10/02 06:18:24;;;;;;;2.55;1.80;;;;;;;;;;4389415;32;68285;-70
2023/10/02 06:21:13;;;;;;;1.77;1.30;;;;;;;;;;4378979;32;71231;-68
2023/10/02 06:24:00;;;;;;;2.12;1.23;;;;;;;;;;4389797;32;66188;-69
2023/10/02 06:26:53;;;;;;;1.90;1.50;;;;;;;;;;4378761;32;68648;-69
2023/10/02 06:29:40;;;;;;;2.03;1.48;;;;;;;;;;4389641;32;67243;-69
2023/10/02 06:32:27;;;;;;;2.62;1.62;;;;;;;;;;4378014;32;72238;-68
2023/10/02 06:35:14;;;;;;;;;;;;;;;;;;4378858;32;66469;-69
2023/10/02 06:38:15;;;;;;;2.58;1.40;;;;;;;;;;4367486;32;66818;-68
2023/10/02 06:41:08;;;;;;;3.78;1.50;;;;;;;;;;4368181;32;61304;-69
2023/10/02 06:43:56;;;;;;;1.42;1.12;;;;;;;;;;4378172;32;69645;-68
2023/10/02 06:46:53;;;;;;;2.87;1.50;;;;;;;;;;4367590;32;68543;-69
2023/10/02 06:49:46;;;;;;;2.90;1.55;;;;;;;;;;4368601;32;68355;-70
2023/10/02 06:52:33;;;;;;;3.37;1.65;;;;;;;;;;4368849;32;60091;-69
2023/10/02 06:55:24;;;;;;;1.27;1.15;;;;;;;;;;4379233;32;70478;-69
2023/10/02 06:58:14;;;;;;;1.42;1.23;;;;;;;;;;4367134;32;68947;-68
2023/10/02 07:01:01;;;;;;;3.92;1.73;;;;;;;;;;4369066;32;67279;-72
2023/10/02 07:03:51;;;;;;;1.73;1.48;;;;;;;;;;4389592;32;70338;-74
2023/10/02 07:06:39;;;;;;;2.87;1.40;;;;;;;;;;4366360;32;63806;-73
2023/10/02 07:09:25;;;;;;;4.55;1.77;;;;;;;;;;4362093;32;67373;-78
2023/10/02 07:12:15;;;;;;;1.85;1.40;;;;;;;;;;4382614;32;61292;-68
2023/10/02 07:15:10;;;;;;;3.45;1.50;;;;;;;;;;4372452;32;71259;-68
2023/10/02 07:18:04;;;;;;;2.53;1.52;;;;;;;;;;4357415;32;66188;-74
2023/10/02 07:20:53;;;;;;;3.40;1.42;;;;;;;;;;4373015;32;65307;-73
2023/10/02 07:23:40;;;;;;;2.40;1.75;;;;;;;;;;4362922;32;57833;-72
2023/10/02 07:29:38;;;;;;;1.20;1.10;;;;;;;;;;4378642;32;70149;-72
2023/10/02 07:32:33;;;;;;;3.72;1.50;;;;;;;;;;4376894;32;68806;-73
2023/10/02 07:35:23;;;;;;;2.33;1.60;;;;;;;;;;4382243;32;71729;-75
2023/10/02 07:38:10;;;;;;;1.83;1.52;;;;;;;;;;4378966;32;66047;-78
2023/10/02 07:41:06;;;;;;;1.73;1.48;;;;;;;;;;4374803;32;66330;-73
2023/10/02 07:43:53;;;;;;;2.08;1.48;;;;;;;;;;4369830;32;67604;-68
2023/10/02 07:46:41;;;;;;;2.30;1.70;;;;;;;;;;4372575;32;70614;-68
2023/10/02 07:49:28;;;;;;;2.65;1.80;;;;;;;;;;4392445;32;65726;-69
2023/10/02 07:52:29;;;;;;;;;;;;;;;;;;4370893;32;66948;-72
2023/10/02 07:55:16;;;;;;;4.70;1.70;;;;;;;;;;4368980;32;59148;-71
2023/10/02 07:58:04;;;;;;;2.33;1.60;;;;;;;;;;4361095;32;71506;-71
2023/10/02 08:00:52;;;;;;;2.65;1.55;;;;;;;;;;4384293;32;68339;-75
2023/10/02 08:03:43;;;;;;;2.28;1.58;;;;;;;;;;4377918;32;65713;-73
2023/10/02 08:12:33;;;;;;;2.50;1.58;;;;;;;;;;4393360;32;61289;-72
2023/10/02 08:15:26;;;;;;;1.73;1.60;;;;;;;;;;4367279;32;68897;-71
2023/10/02 08:18:17;;;;;;;2.30;1.50;;;;;;;;;;4387659;32;69606;-68
2023/10/02 08:21:04;;;;;;;2.65;1.60;;;;;;;;;;4384405;32;66511;-71
2023/10/02 08:23:52;;;;;;;4.03;1.77;;;;;;;;;;4381262;32;71564;-74
2023/10/02 08:26:43;;;;;;;4.72;1.40;;;;;;;;;;4371540;32;66397;-74
2023/10/02 08:29:30;;;;;;;2.28;1.62;;;;;;;;;;4370400;32;68019;-73
2023/10/02 08:32:28;;;;;;;;;;;;;;;;;;4392383;32;60387;-69
2023/10/02 08:35:16;;;;;;;3.58;1.90;;;;;;;;;;4397257;32;71746;-70
2023/10/02 08:38:07;;;;;;;3.17;1.55;;;;;;;;;;4388402;32;66011;-74
2023/10/02 08:40:57;;;;;;;3.50;1.52;;;;;;;;;;4386019;32;66375;-68
2023/10/02 08:43:44;;;;;;;7.05;2.25;;;;;;;;;;4399337;32;59454;-73
2023/10/02 08:46:31;;;;;;;1.50;1.40;;;;;;;;;;4376350;32;71557;-74
2023/10/02 08:49:18;;;;;;;3.22;1.50;;;;;;;;;;4373094;32;67756;-74
2023/10/02 08:52:11;;;;;;;3.75;1.65;;;;;;;;;;4390592;32;68738;-73
2023/10/02 08:55:25;;;;;;;5.32;2.95;;;;;;;;;;4370819;32;71326;-69
2023/10/02 08:58:22;;;;;;;4.12;1.40;;;;;;;;;;4375123;32;64666;-76
2023/10/02 09:07:20;;;;;;;7.72;1.70;;;;;;;;;;4373156;32;70863;-66
2023/10/02 09:10:28;;;;;;;1.90;1.33;;;;;;;;;;4360975;32;64838;-68
2023/10/02 09:13:16;;;;;;;1.77;1.45;;;;;;;;;;4377198;32;66434;-74
2023/10/02 09:16:14;;;;;;;2.15;1.30;;;;;;;;;;4368757;32;58874;-72
2023/10/02 09:19:28;;;;;;;;;;;;;;;;;;4361331;32;71172;-72
2023/10/02 09:22:20;;;;;;;2.47;1.50;;;;;;;;;;4353183;32;68224;-73
2023/10/02 09:25:18;;;;;;;2.78;1.55;;;;;;;;;;4361750;32;69443;-77
2023/10/02 09:28:13;;;;;;;2.70;1.15;;;;;;;;;;4369895;32;59769;-73
2023/10/02 09:31:14;;;;;;;3.30;1.77;;;;;;;;;;4366801;32;71367;-73
2023/10/02 09:34:11;;;;;;;3.30;1.65;;;;;;;;;;4355084;32;67800;-75
2023/10/02 09:37:11;;;;;;;1.42;1.27;;;;;;;;;;4365793;32;68688;-72
2023/10/02 09:39:58;;;;;;;4.18;1.55;;;;;;;;;;4352954;32;70910;-75
2023/10/02 09:42:48;;;;;;;2.72;1.35;;;;;;;;;;4365325;32;66316;-78
2023/10/02 09:45:37;;;;;;;2.42;0.95;;;;;;;;;;4365843;32;67440;-71
2023/10/02 09:51:45;;;;;;;2.85;1.40;;;;;;;;;;4363839;32;72396;-75
2023/10/02 09:54:41;;;;;;;2.33;1.40;;;;;;;;;;4342976;32;67801;-76
2023/10/02 09:57:32;;;;;;;1.30;1.17;;;;;;;;;;4363709;32;67562;-74
2023/10/02 10:00:34;;;;;;;1.73;1.33;;;;;;;;;;4342145;32;61185;-74
2023/10/02 10:03:30;;;;;;;1.87;1.30;;;;;;;;;;4380330;32;69600;-76
2023/10/02 10:06:19;;;;;;;1.37;1.25;;;;;;;;;;4368548;32;68510;-73
2023/10/02 10:12:32;;;;;;;3.37;1.45;;;;;;;;;;4357334;32;71867;-68
2023/10/02 10:15:25;;;;;;;1.33;1.10;;;;;;;;;;4356163;32;66457;-76
2023/10/02 10:18:12;;;;;;;1.35;1.20;;;;;;;;;;4353790;32;66776;-76
2023/10/02 10:21:56;;;;;;;2.42;1.23;;;;;;;;;;4341548;32;67147;-67
2023/10/02 10:27:54;;;;;;;2.45;1.55;;;;;;;;;;4353781;32;67838;-70
2023/10/02 10:30:46;;;;;;;3.05;1.50;;;;;;;;;;4341024;32;68414;-73
2023/10/02 10:33:35;;;;;;;2.58;1.45;;;;;;;;;;4358670;32;60497;-74
2023/10/02 10:36:35;;;;;;;2.05;1.55;;;;;;;;;;4366665;32;69060;-74
2023/10/02 10:39:53;;;;;;;2.65;1.35;;;;;;;;;;4372528;32;68314;-74
2023/10/02 10:42:59;;;;;;;1.85;1.60;;;;;;;;;;4351950;32;70146;-70
2023/10/02 10:45:48;;;;;;;2.80;1.25;;;;;;;;;;4355153;32;60661;-73
2023/10/02 10:48:34;;;;;;;3.78;1.50;;;;;;;;;;4378101;32;70122;-73
2023/10/02 10:51:22;;;;;;;3.65;1.48;;;;;;;;;;4359372;32;69988;-73
2023/10/02 10:54:13;;;;;;;4.10;1.62;;;;;;;;;;4366383;32;69065;-76
2023/10/02 11:00:31;;;;;;;1.23;1.12;;;;;;;;;;4369671;32;65706;-75
2023/10/02 11:03:26;;;;;;;2.05;1.37;;;;;;;;;;4380657;32;66151;-77
2023/10/02 11:09:12;;;;;;;2.47;1.42;;;;;;;;;;3843711;37;43643;-75
2023/10/02 11:12:02;;;;;;;3.80;1.27;;;;;;;;;;4385045;32;59105;-75
2023/10/02 11:14:44;;;;;;;1.55;1.42;;;;;;;;;;3844105;37;43962;-75
2023/10/02 11:17:32;;;;;;;2.55;1.65;;;;;;;;;;4369632;32;60749;-75
2023/10/02 11:20:32;;;;;;;2.25;1.40;;;;;;;;;;4358214;32;70583;-77
2023/10/02 11:23:37;;;;;;;2.92;1.62;;;;;;;;;;4390185;32;69561;-76
2023/10/02 11:26:23;;;;;;;3.50;1.70;;;;;;;;;;4380055;32;68266;-77
2023/10/02 11:29:20;;;;;;;;;;;;;;;;;;4391934;32;71626;-74
2023/10/02 11:32:19;;;;;;;1.45;1.35;;;;;;;;;;4368909;32;68147;-77
2023/10/02 11:35:07;;;;;;;2.42;1.70;;;;;;;;;;4370425;32;69469;-77
2023/10/02 11:37:53;;;;;;;3.67;1.70;;;;;;;;;;4382046;32;60499;-77
2023/10/02 11:40:43;;;;;;;;;;;;;;;;;;4359240;32;72176;-77
2023/10/02 11:43:29;;;;;;;3.65;1.95;;;;;;;;;;4368681;32;64514;-75
2023/10/02 11:46:28;;;;;;;2.50;1.60;;;;;;;;;;3831976;37;43739;-72
2023/10/02 11:52:18;;;;;;;2.42;1.65;;;;;;;;;;3832116;37;44057;-74
2023/10/02 11:55:06;;;;;;;4.20;1.90;;;;;;;;;;4378963;32;60061;-73
2023/10/02 11:57:52;;;;;;;4.43;2.22;;;;;;;;;;4379529;32;70821;-78
2023/10/02 12:00:39;;;;;;;3.37;2.08;;;;;;;;;;4377016;32;69236;-79
2023/10/02 12:03:26;;;;;;;4.05;2.08;;;;;;;;;;4379313;32;68075;-71
2023/10/02 12:06:23;;;;;;;;;;;;;;;;;;4377659;32;71533;-79
2023/10/02 12:09:17;;;;;;;2.95;2.05;;;;;;;;;;4387289;32;65605;-76
2023/10/02 12:12:04;;;;;;;2.90;2.37;;;;;;;;;;4365817;32;65914;-72
2023/10/02 12:14:51;;;;;;;3.47;2.05;;;;;;;;;;4390800;32;60203;-72
2023/10/02 12:17:37;;;;;;;4.30;2.20;;;;;;;;;;4379855;32;71623;-73
2023/10/02 12:20:25;;;;;;;4.03;2.35;;;;;;;;;;4353099;32;66654;-73
2023/10/02 12:23:11;;;;;;;;;;;;;;;;;;4376982;32;67620;-72
2023/10/02 12:28:42;;;;;;;3.92;2.15;;;;;;;;;;3825245;37;43919;-78
2023/10/02 12:31:28;;;;;;;5.70;2.50;;;;;;;;;;3833312;37;43906;-74
2023/10/02 12:34:17;;;;;;;4.25;2.50;;;;;;;;;;4406310;32;60298;-72
2023/10/02 12:37:06;;;;;;;4.18;2.65;;;;;;;;;;4383219;32;69065;-71
2023/10/02 12:39:55;;;;;;;4.82;2.15;;;;;;;;;;4373503;32;69076;-72
2023/10/02 12:42:42;;;;;;;3.60;2.00;;;;;;;;;;4368017;32;68056;-66
2023/10/02 12:48:17;;;;;;;4.45;1.90;;;;;;;;;;3823379;37;43643;-67
2023/10/02 12:51:08;;;;;;;4.40;1.67;;;;;;;;;;4390538;32;60223;-66
2023/10/02 12:53:54;;;;;;;3.35;2.03;;;;;;;;;;4393586;32;70278;-65
2023/10/02 12:56:45;;;;;;;3.70;2.15;;;;;;;;;;4383620;32;69402;-73
2023/10/02 12:59:31;;;;;;;3.00;1.98;;;;;;;;;;4379375;32;68872;-68
2023/10/02 13:02:18;;;;;;;2.30;1.80;;;;;;;;;;4393853;32;72091;-68
2023/10/02 13:05:05;;;;;;;3.22;1.70;;;;;;;;;;4382154;32;64377;-74
2023/10/02 13:07:57;;;;;;;5.47;2.70;;;;;;;;;;4396800;32;67552;-72
2023/10/02 13:10:43;;;;;;;3.35;1.90;;;;;;;;;;4383908;32;61197;-73
2023/10/02 13:13:30;;;;;;;2.42;1.50;;;;;;;;;;4403855;32;72061;-75
2023/10/02 13:16:18;;;;;;;3.42;1.95;;;;;;;;;;4406248;32;65119;-75
2023/10/02 13:19:09;;;;;;;2.92;1.83;;;;;;;;;;4382436;32;67931;-75
2023/10/02 13:21:55;;;;;;;3.92;1.92;;;;;;;;;;4404767;32;60635;-75
2023/10/02 13:24:42;;;;;;;;;;;;;;;;;;4394248;32;69492;-73
2023/10/02 13:27:29;;;;;;;2.83;1.92;;;;;;;;;;4405143;32;68038;-75
2023/10/02 13:30:25;;;;;;;4.15;2.20;;;;;;;;;;4406889;32;68755;-74
2023/10/02 13:33:12;;;;;;;4.18;2.20;;;;;;;;;;4404896;32;70285;-74
2023/10/02 13:36:03;;;;;;;3.00;2.00;;;;;;;;;;4405691;32;65887;-75
2023/10/02 13:38:57;;;;;;;3.95;2.20;;;;;;;;;;4383440;32;68603;-75
2023/10/02 13:41:45;;;;;;;3.30;2.00;;;;;;;;;;4383178;32;68731;-74
2023/10/02 13:44:32;;;;;;;2.47;1.75;;;;;;;;;;4383591;32;71916;-75
2023/10/02 13:47:19;;;;;;;2.78;1.75;;;;;;;;;;4404452;32;65503;-75
2023/10/02 13:50:08;;;;;;;3.78;2.15;;;;;;;;;;4373068;32;69357;-75
2023/10/02 13:52:55;;;;;;;4.75;2.40;;;;;;;;;;4393903;32;60315;-74
2023/10/02 13:55:41;;;;;;;3.53;2.20;;;;;;;;;;4406589;32;70600;-75
2023/10/02 13:58:28;;;;;;;3.70;2.33;;;;;;;;;;4399314;32;68535;-75
2023/10/02 14:01:16;;;;;;;3.37;2.10;;;;;;;;;;4386004;32;66400;-75
2023/10/02 14:04:06;;;;;;;3.70;2.47;;;;;;;;;;4385568;32;58900;-74
2023/10/02 14:06:53;;;;;;;5.35;2.40;;;;;;;;;;4394445;32;69568;-75
2023/10/02 14:09:39;;;;;;;;;;;;;;;;;;4383689;32;69471;-75
2023/10/02 14:12:28;;;;;;;3.70;2.20;;;;;;;;;;4368939;32;68002;-76
2023/10/02 14:15:19;;;;;;;5.75;2.53;;;;;;;;;;4380322;32;72064;-75
2023/10/02 14:18:06;;;;;;;8.13;2.47;;;;;;;;;;4373028;32;67383;-75
2023/10/02 14:21:05;;;;;;;4.03;2.35;;;;;;;;;;4383119;32;68528;-75
2023/10/02 14:23:52;;;;;;;5.12;2.55;;;;;;;;;;4394568;32;59269;-75
2023/10/02 14:26:39;;;;;;;3.45;2.25;;;;;;;;;;4383348;32;70539;-74
2023/10/02 14:29:26;;;;;;;3.05;2.15;;;;;;;;;;4382901;32;65800;-74
2023/10/02 14:32:13;;;;;;;4.32;2.10;;;;;;;;;;4393715;32;68564;-74
2023/10/02 14:34:59;;;;;;;4.85;2.33;;;;;;;;;;4394291;32;59252;-76
2023/10/02 14:37:52;;;;;;;5.00;3.62;;;;;;;;;;4382857;32;71505;-76
2023/10/02 14:40:38;;;;;;;5.53;2.70;;;;;;;;;;4394067;32;68820;-74
2023/10/02 14:43:24;;;;;;;;;;;;;;;;;;4394560;32;66762;-74
2023/10/02 14:46:11;;;;;;;4.20;2.65;;;;;;;;;;4393752;32;71738;-74
2023/10/02 14:48:58;;;;;;;4.75;2.28;;;;;;;;;;4394177;32;64662;-75
2023/10/02 14:51:45;;;;;;;3.85;2.17;;;;;;;;;;4394273;32;67948;-75
2023/10/02 14:54:32;;;;;;;7.00;2.47;;;;;;;;;;4394024;32;66642;-75
2023/10/02 14:57:26;;;;;;;5.07;2.40;;;;;;;;;;4395260;32;71299;-75
2023/10/02 15:00:16;;;;;;;4.85;2.12;;;;;;;;;;4393321;32;67393;-75
2023/10/02 15:03:03;;;;;;;5.55;2.15;;;;;;;;;;4372846;32;66998;-75
2023/10/02 15:05:49;;;;;;;;;;;;;;;;;;4394151;32;60298;-74
2023/10/02 15:08:36;;;;;;;2.90;1.70;;;;;;;;;;4393309;32;69747;-75
2023/10/02 15:11:22;;;;;;;6.05;2.10;;;;;;;;;;4373957;32;69268;-76
2023/10/02 15:14:09;;;;;;;;;;;;;;;;;;4378413;32;68717;-75
2023/10/02 15:16:56;;;;;;;5.60;2.03;;;;;;;;;;4361410;32;59806;-75
2023/10/02 15:19:42;;;;;;;3.25;1.98;;;;;;;;;;4378490;32;70163;-74
2023/10/02 15:22:32;;;;;;;4.10;2.33;;;;;;;;;;4367548;32;68828;-75
2023/10/02 15:25:20;;;;;;;4.90;1.95;;;;;;;;;;4356952;32;68398;-75
2023/10/02 15:28:07;;;;;;;4.03;2.20;;;;;;;;;;4356480;32;72683;-75
2023/10/02 15:30:53;;;;;;;4.90;2.22;;;;;;;;;;4367763;32;65114;-75
2023/10/02 15:33:41;;;;;;;7.62;2.12;;;;;;;;;;4368027;32;67366;-75
2023/10/02 15:36:27;;;;;;;5.30;1.98;;;;;;;;;;4378578;32;59039;-75
2023/10/02 15:39:14;;;;;;;6.30;2.33;;;;;;;;;;4367598;32;69447;-75
2023/10/02 15:42:00;;;;;;;5.18;2.58;;;;;;;;;;4379632;32;65792;-75
2023/10/02 15:47:34;;;;;;;4.28;2.40;;;;;;;;;;3865696;36;44285;-75
2023/10/02 15:50:44;;;;;;;4.62;2.40;;;;;;;;;;3843922;37;43969;-75
2023/10/02 15:53:33;;;;;;;3.92;2.53;;;;;;;;;;4385460;32;61243;-75
2023/10/02 15:56:23;;;;;;;5.12;2.70;;;;;;;;;;4394964;32;70470;-75
2023/10/02 15:59:12;;;;;;;5.20;2.70;;;;;;;;;;4394764;32;67264;-75
2023/10/02 16:01:59;;;;;;;5.78;2.62;;;;;;;;;;4405665;32;66519;-75
2023/10/02 16:04:46;;;;;;;4.10;2.60;;;;;;;;;;4405748;32;71830;-76
2023/10/02 16:07:36;;;;;;;3.58;2.30;;;;;;;;;;4379115;32;64457;-79
2023/10/02 16:10:24;;;;;;;5.68;2.78;;;;;;;;;;4385010;32;65984;-75
2023/10/02 16:13:10;;;;;;;5.68;2.60;;;;;;;;;;4407042;32;58764;-75
2023/10/02 16:15:57;;;;;;;;;;;;;;;;;;4384746;32;70799;-75
2023/10/02 16:18:43;;;;;;;4.20;2.30;;;;;;;;;;4395236;32;65570;-75
2023/10/02 16:21:30;;;;;;;3.78;2.25;;;;;;;;;;4383810;32;68840;-75
2023/10/02 16:24:17;;;;;;;;;;;;;;;;;;4391428;32;60384;-75
2023/10/02 16:27:04;;;;;;;4.80;2.65;;;;;;;;;;4390185;32;69837;-75
2023/10/02 16:29:50;;;;;;;5.10;3.03;;;;;;;;;;4379934;32;69963;-75
2023/10/02 16:32:43;;;;;;;5.05;2.20;;;;;;;;;;4378848;32;67054;-75
2023/10/02 16:35:29;;;;;;;5.47;2.47;;;;;;;;;;4390047;32;72518;-75
2023/10/02 16:38:17;;;;;;;4.00;2.42;;;;;;;;;;4391604;32;64800;-74
2023/10/02 16:41:03;;;;;;;6.35;3.05;;;;;;;;;;4379074;32;68506;-75
2023/10/02 16:43:50;;;;;;;5.82;3.00;;;;;;;;;;4368081;32;67336;-74
2023/10/02 16:46:37;;;;;;;;;;;;;;;;;;4391500;32;71386;-74
2023/10/02 16:49:24;;;;;;;4.57;2.87;;;;;;;;;;4389667;32;65915;-74
2023/10/02 16:52:15;;;;;;;5.55;2.97;;;;;;;;;;4378883;32;65931;-75
2023/10/02 16:55:03;;;;;;;5.47;2.30;;;;;;;;;;4379611;32;59018;-74
2023/10/02 16:57:52;;;;;;;5.12;2.50;;;;;;;;;;4368149;32;69420;-76
2023/10/02 17:00:44;;;;;;;4.53;2.37;;;;;;;;;;3865675;36;44438;-75
2023/10/02 17:03:32;;;;;;;6.07;2.85;;;;;;;;;;4389305;32;60129;-74
2023/10/02 17:06:20;;;;;;;5.30;2.55;;;;;;;;;;4399529;32;70298;-74
2023/10/02 17:09:06;;;;;;;3.95;2.40;;;;;;;;;;4388802;32;69398;-75
2023/10/02 17:11:54;;;;;;;3.60;2.50;;;;;;;;;;4396174;32;67204;-76
2023/10/02 17:14:42;;;;;;;5.10;3.08;;;;;;;;;;4395569;32;71756;-75
2023/10/02 17:17:28;;;;;;;4.87;2.72;;;;;;;;;;4393586;32;67208;-75
2023/10/02 17:20:19;;;;;;;5.50;2.65;;;;;;;;;;4384501;32;67300;-76
2023/10/02 17:23:08;;;;;;;3.28;2.42;;;;;;;;;;4381563;32;58102;-74
2023/10/02 17:26:04;;;;;;;3.78;2.37;;;;;;;;;;4394875;32;71291;-74
2023/10/02 17:28:51;;;;;;;5.03;2.37;;;;;;;;;;4393187;32;65556;-76
2023/10/02 17:31:38;;;;;;;4.00;2.30;;;;;;;;;;4371120;32;67033;-75
2023/10/02 17:34:24;;;;;;;3.25;2.35;;;;;;;;;;4383993;32;59900;-75
2023/10/02 17:37:11;;;;;;;5.12;2.40;;;;;;;;;;4373124;32;70854;-75
2023/10/02 17:39:58;;;;;;;4.85;2.70;;;;;;;;;;4370523;32;66979;-74
2023/10/02 17:42:46;;;;;;;6.62;2.97;;;;;;;;;;4394589;32;67120;-75
2023/10/02 17:45:32;;;;;;;;;;;;;;;;;;4381364;32;70531;-73
2023/10/02 17:48:20;;;;;;;3.62;2.37;;;;;;;;;;4371375;32;66226;-75
2023/10/02 17:51:07;;;;;;;4.57;2.65;;;;;;;;;;4394166;32;67912;-75
2023/10/02 17:53:54;;;;;;;4.72;2.60;;;;;;;;;;4378943;32;67570;-75
2023/10/02 17:56:40;;;;;;;4.65;2.37;;;;;;;;;;4379097;32;71831;-75
2023/10/02 17:59:27;;;;;;;4.15;2.72;;;;;;;;;;4379350;32;66091;-75
2023/10/02 18:02:14;;;;;;;4.85;2.95;;;;;;;;;;4391133;32;67492;-74
2023/10/02 18:05:01;;;;;;;4.82;2.70;;;;;;;;;;4368559;32;60315;-74
2023/10/02 18:07:49;;;;;;;;;;;;;;;;;;4379338;32;69419;-75
2023/10/02 18:10:38;;;;;;;5.05;2.72;;;;;;;;;;4364670;32;70850;-75
2023/10/02 18:13:24;;;;;;;4.50;2.70;;;;;;;;;;4384865;32;67783;-75
2023/10/02 18:16:17;;;;;;;5.25;2.80;;;;;;;;;;4347676;32;59392;-75